sensor_id;sensor_type;location;lat;lon;timestamp;temperature;humidity
25991;DHT22;13779;-33.886;151.198;2022-08-19T00:02:18;16.30;99.90
25991;DHT22;13779;-33.886;151.198;2022-08-19T00:05:46;16.30;99.90
25991;DHT22;13779;-33.886;151.198;2022-08-19T00:08:50;16.30;99.90
25991;DHT22;13779;-33.886;151.198;2022-08-19T00:11:21;16.20;99.90
25991;DHT22;13779;-33.886;151.198;2022-08-19T00:20:57;16.30;99.90
25991;DHT22;13779;-33.886;151.198;2022-08-19T00:23:43;16.30;99.90
25991;DHT22;13779;-33.886;151.198;2022-08-19T00:30:55;16.30;99.90
25991;DHT22;13779;-33.886;151.198;2022-08-19T00:34:09;16.40;99.90
25991;DHT22;13779;-33.886;151.198;2022-08-19T00:37:46;16.50;99.90
25991;DHT22;13779;-33.886;151.198;2022-08-19T00:40:47;16.60;99.90
25991;DHT22;13779;-33.886;151.198;2022-08-19T00:43:39;16.70;99.90
25991;DHT22;13779;-33.886;151.198;2022-08-19T00:46:27;16.80;99.90
25991;DHT22;13779;-33.886;151.198;2022-08-19T00:49:45;16.90;99.90
25991;DHT22;13779;-33.886;151.198;2022-08-19T00:52:50;17.00;99.90
25991;DHT22;13779;-33.886;151.198;2022-08-19T00:55:46;17.00;99.90
25991;DHT22;13779;-33.886;151.198;2022-08-19T00:58:49;17.10;99.90
25991;DHT22;13779;-33.886;151.198;2022-08-19T01:01:40;17.10;99.90
25991;DHT22;13779;-33.886;151.198;2022-08-19T01:04:27;17.10;99.90
25991;DHT22;13779;-33.886;151.198;2022-08-19T01:06:59;17.20;99.90
25991;DHT22;13779;-33.886;151.198;2022-08-19T01:09:51;17.20;99.90
25991;DHT22;13779;-33.886;151.198;2022-08-19T01:12:22;17.20;99.90
25991;DHT22;13779;-33.886;151.198;2022-08-19T01:15:04;17.30;99.90
25991;DHT22;13779;-33.886;151.198;2022-08-19T01:17:36;17.30;99.90
25991;DHT22;13779;-33.886;151.198;2022-08-19T01:20:12;17.50;99.90
25991;DHT22;13779;-33.886;151.198;2022-08-19T01:22:51;17.60;99.90
25991;DHT22;13779;-33.886;151.198;2022-08-19T01:25:29;17.70;99.90
25991;DHT22;13779;-33.886;151.198;2022-08-19T01:28:01;17.80;99.90
25991;DHT22;13779;-33.886;151.198;2022-08-19T01:30:36;17.90;99.90
25991;DHT22;13779;-33.886;151.198;2022-08-19T01:33:13;18.00;99.90
25991;DHT22;13779;-33.886;151.198;2022-08-19T01:35:48;18.20;99.90
25991;DHT22;13779;-33.886;151.198;2022-08-19T01:38:25;18.20;99.90
25991;DHT22;13779;-33.886;151.198;2022-08-19T01:40:58;18.40;99.90
25991;DHT22;13779;-33.886;151.198;2022-08-19T01:43:29;18.50;99.90
25991;DHT22;13779;-33.886;151.198;2022-08-19T01:46:00;18.50;99.90
25991;DHT22;13779;-33.886;151.198;2022-08-19T01:48:36;18.50;99.90
25991;DHT22;13779;-33.886;151.198;2022-08-19T01:51:08;18.50;99.90
25991;DHT22;13779;-33.886;151.198;2022-08-19T01:53:45;18.40;99.90
25991;DHT22;13779;-33.886;151.198;2022-08-19T01:56:18;18.40;99.90
25991;DHT22;13779;-33.886;151.198;2022-08-19T01:59:05;18.40;99.90
25991;DHT22;13779;-33.886;151.198;2022-08-19T02:01:39;18.40;99.90
25991;DHT22;13779;-33.886;151.198;2022-08-19T02:04:13;18.40;99.90
25991;DHT22;13779;-33.886;151.198;2022-08-19T02:06:44;18.40;99.90
25991;DHT22;13779;-33.886;151.198;2022-08-19T02:09:15;18.40;99.90
25991;DHT22;13779;-33.886;151.198;2022-08-19T02:11:58;18.50;99.90
25991;DHT22;13779;-33.886;151.198;2022-08-19T02:14:32;18.50;99.90
25991;DHT22;13779;-33.886;151.198;2022-08-19T02:17:16;18.40;99.90
25991;DHT22;13779;-33.886;151.198;2022-08-19T02:19:51;18.30;99.90
25991;DHT22;13779;-33.886;151.198;2022-08-19T02:22:22;18.30;99.90
25991;DHT22;13779;-33.886;151.198;2022-08-19T02:24:58;18.30;99.90
25991;DHT22;13779;-33.886;151.198;2022-08-19T02:27:35;18.30;99.90
25991;DHT22;13779;-33.886;151.198;2022-08-19T02:30:05;18.30;99.90
25991;DHT22;13779;-33.886;151.198;2022-08-19T02:32:46;18.40;99.90
25991;DHT22;13779;-33.886;151.198;2022-08-19T02:35:21;18.40;99.90
25991;DHT22;13779;-33.886;151.198;2022-08-19T02:38:34;18.50;99.90
25991;DHT22;13779;-33.886;151.198;2022-08-19T02:41:17;18.60;99.90
25991;DHT22;13779;-33.886;151.198;2022-08-19T02:43:49;18.70;99.90
25991;DHT22;13779;-33.886;151.198;2022-08-19T02:46:39;18.80;99.90
25991;DHT22;13779;-33.886;151.198;2022-08-19T02:49:16;18.90;99.90
25991;DHT22;13779;-33.886;151.198;2022-08-19T02:51:48;19.10;99.90
25991;DHT22;13779;-33.886;151.198;2022-08-19T02:54:19;19.20;99.90
25991;DHT22;13779;-33.886;151.198;2022-08-19T02:56:50;19.20;99.90
25991;DHT22;13779;-33.886;151.198;2022-08-19T02:59:25;19.30;99.90
25991;DHT22;13779;-33.886;151.198;2022-08-19T03:02:23;19.20;99.90
25991;DHT22;13779;-33.886;151.198;2022-08-19T03:04:54;19.10;99.90
25991;DHT22;13779;-33.886;151.198;2022-08-19T03:07:34;19.10;99.90
25991;DHT22;13779;-33.886;151.198;2022-08-19T03:10:10;19.30;99.90
25991;DHT22;13779;-33.886;151.198;2022-08-19T03:12:41;19.30;99.90
25991;DHT22;13779;-33.886;151.198;2022-08-19T03:15:12;19.50;99.90
25991;DHT22;13779;-33.886;151.198;2022-08-19T03:17:43;19.50;99.90
25991;DHT22;13779;-33.886;151.198;2022-08-19T03:20:17;19.70;99.90
25991;DHT22;13779;-33.886;151.198;2022-08-19T03:22:51;19.70;99.90
25991;DHT22;13779;-33.886;151.198;2022-08-19T03:25:22;19.60;99.90
25991;DHT22;13779;-33.886;151.198;2022-08-19T03:28:05;19.60;99.90
25991;DHT22;13779;-33.886;151.198;2022-08-19T03:31:42;19.60;99.90
25991;DHT22;13779;-33.886;151.198;2022-08-19T03:34:34;19.60;99.90
25991;DHT22;13779;-33.886;151.198;2022-08-19T03:37:09;20.00;99.90
25991;DHT22;13779;-33.886;151.198;2022-08-19T03:39:48;20.40;99.90
25991;DHT22;13779;-33.886;151.198;2022-08-19T03:42:37;20.80;99.90
25991;DHT22;13779;-33.886;151.198;2022-08-19T03:45:18;21.20;99.90
25991;DHT22;13779;-33.886;151.198;2022-08-19T03:47:52;21.40;99.90
25991;DHT22;13779;-33.886;151.198;2022-08-19T03:50:27;21.10;99.90
25991;DHT22;13779;-33.886;151.198;2022-08-19T03:52:58;20.60;99.90
25991;DHT22;13779;-33.886;151.198;2022-08-19T03:55:45;20.20;99.90
25991;DHT22;13779;-33.886;151.198;2022-08-19T03:58:22;19.90;99.90
25991;DHT22;13779;-33.886;151.198;2022-08-19T04:00:56;19.70;99.90
25991;DHT22;13779;-33.886;151.198;2022-08-19T04:03:27;19.50;99.90
25991;DHT22;13779;-33.886;151.198;2022-08-19T04:05:58;19.40;99.90
25991;DHT22;13779;-33.886;151.198;2022-08-19T04:08:29;19.40;99.90
25991;DHT22;13779;-33.886;151.198;2022-08-19T04:11:47;19.40;99.90
25991;DHT22;13779;-33.886;151.198;2022-08-19T04:14:17;19.40;99.90
25991;DHT22;13779;-33.886;151.198;2022-08-19T04:16:49;19.40;99.90
25991;DHT22;13779;-33.886;151.198;2022-08-19T04:19:20;19.20;99.90
25991;DHT22;13779;-33.886;151.198;2022-08-19T04:22:06;19.20;99.90
25991;DHT22;13779;-33.886;151.198;2022-08-19T04:24:37;19.10;99.90
25991;DHT22;13779;-33.886;151.198;2022-08-19T04:27:08;18.90;99.90
25991;DHT22;13779;-33.886;151.198;2022-08-19T04:29:42;18.80;99.90
25991;DHT22;13779;-33.886;151.198;2022-08-19T04:32:40;18.70;99.90
25991;DHT22;13779;-33.886;151.198;2022-08-19T04:35:56;19.20;99.90
25991;DHT22;13779;-33.886;151.198;2022-08-19T04:38:28;19.90;99.90
25991;DHT22;13779;-33.886;151.198;2022-08-19T04:41:41;19.90;99.90
25991;DHT22;13779;-33.886;151.198;2022-08-19T04:44:57;20.10;99.90
25991;DHT22;13779;-33.886;151.198;2022-08-19T04:47:29;20.20;99.90
25991;DHT22;13779;-33.886;151.198;2022-08-19T04:50:15;20.20;99.90
25991;DHT22;13779;-33.886;151.198;2022-08-19T04:52:58;19.90;99.90
25991;DHT22;13779;-33.886;151.198;2022-08-19T04:55:34;19.70;99.90
25991;DHT22;13779;-33.886;151.198;2022-08-19T04:58:10;19.50;99.90
25991;DHT22;13779;-33.886;151.198;2022-08-19T05:00:41;19.60;99.90
25991;DHT22;13779;-33.886;151.198;2022-08-19T05:03:15;19.50;99.90
25991;DHT22;13779;-33.886;151.198;2022-08-19T05:05:49;19.40;99.90
25991;DHT22;13779;-33.886;151.198;2022-08-19T05:08:23;19.30;99.90
25991;DHT22;13779;-33.886;151.198;2022-08-19T05:10:58;19.10;99.90
25991;DHT22;13779;-33.886;151.198;2022-08-19T05:13:32;18.90;99.90
25991;DHT22;13779;-33.886;151.198;2022-08-19T05:16:04;18.80;99.90
25991;DHT22;13779;-33.886;151.198;2022-08-19T05:18:34;18.60;99.90
25991;DHT22;13779;-33.886;151.198;2022-08-19T05:21:24;18.30;99.90
25991;DHT22;13779;-33.886;151.198;2022-08-19T05:24:25;18.10;99.90
25991;DHT22;13779;-33.886;151.198;2022-08-19T05:27:01;17.90;99.90
25991;DHT22;13779;-33.886;151.198;2022-08-19T05:29:38;17.80;99.90
25991;DHT22;13779;-33.886;151.198;2022-08-19T05:32:09;17.80;99.90
25991;DHT22;13779;-33.886;151.198;2022-08-19T05:34:58;17.80;99.90
25991;DHT22;13779;-33.886;151.198;2022-08-19T05:37:31;17.90;99.90
25991;DHT22;13779;-33.886;151.198;2022-08-19T05:40:04;18.00;99.90
25991;DHT22;13779;-33.886;151.198;2022-08-19T05:42:41;18.10;99.90
25991;DHT22;13779;-33.886;151.198;2022-08-19T05:45:12;18.10;99.90
25991;DHT22;13779;-33.886;151.198;2022-08-19T05:47:42;18.10;99.90
25991;DHT22;13779;-33.886;151.198;2022-08-19T05:50:14;18.20;99.90
25991;DHT22;13779;-33.886;151.198;2022-08-19T05:52:47;18.30;99.90
25991;DHT22;13779;-33.886;151.198;2022-08-19T05:55:18;18.30;99.90
25991;DHT22;13779;-33.886;151.198;2022-08-19T05:57:54;18.30;99.90
25991;DHT22;13779;-33.886;151.198;2022-08-19T06:00:38;18.30;99.90
25991;DHT22;13779;-33.886;151.198;2022-08-19T06:03:09;18.20;99.90
25991;DHT22;13779;-33.886;151.198;2022-08-19T06:05:41;18.20;99.90
25991;DHT22;13779;-33.886;151.198;2022-08-19T06:08:20;18.10;99.90
25991;DHT22;13779;-33.886;151.198;2022-08-19T06:13:53;18.00;99.90
25991;DHT22;13779;-33.886;151.198;2022-08-19T06:16:39;17.90;99.90
25991;DHT22;13779;-33.886;151.198;2022-08-19T06:19:30;17.90;99.90
25991;DHT22;13779;-33.886;151.198;2022-08-19T06:22:01;17.90;99.90
25991;DHT22;13779;-33.886;151.198;2022-08-19T06:24:33;17.90;99.90
25991;DHT22;13779;-33.886;151.198;2022-08-19T06:27:14;17.90;99.90
25991;DHT22;13779;-33.886;151.198;2022-08-19T06:29:54;18.00;99.90
25991;DHT22;13779;-33.886;151.198;2022-08-19T06:32:28;17.80;99.90
25991;DHT22;13779;-33.886;151.198;2022-08-19T06:35:00;17.60;99.90
25991;DHT22;13779;-33.886;151.198;2022-08-19T06:37:37;17.40;99.90
25991;DHT22;13779;-33.886;151.198;2022-08-19T06:40:18;17.20;99.90
25991;DHT22;13779;-33.886;151.198;2022-08-19T06:43:18;17.10;99.90
25991;DHT22;13779;-33.886;151.198;2022-08-19T06:45:49;17.00;99.90
25991;DHT22;13779;-33.886;151.198;2022-08-19T06:48:21;16.90;99.90
25991;DHT22;13779;-33.886;151.198;2022-08-19T06:50:52;16.80;99.90
25991;DHT22;13779;-33.886;151.198;2022-08-19T06:53:26;16.60;99.90
25991;DHT22;13779;-33.886;151.198;2022-08-19T06:56:08;16.50;99.90
25991;DHT22;13779;-33.886;151.198;2022-08-19T06:59:12;16.40;99.90
25991;DHT22;13779;-33.886;151.198;2022-08-19T07:01:49;16.20;99.90
25991;DHT22;13779;-33.886;151.198;2022-08-19T07:04:26;16.10;99.90
25991;DHT22;13779;-33.886;151.198;2022-08-19T07:07:09;15.90;99.90
25991;DHT22;13779;-33.886;151.198;2022-08-19T07:09:47;15.70;99.90
25991;DHT22;13779;-33.886;151.198;2022-08-19T07:12:18;15.60;99.90
25991;DHT22;13779;-33.886;151.198;2022-08-19T07:14:52;15.60;99.90
25991;DHT22;13779;-33.886;151.198;2022-08-19T07:17:23;15.50;99.90
25991;DHT22;13779;-33.886;151.198;2022-08-19T07:19:56;15.40;99.90
25991;DHT22;13779;-33.886;151.198;2022-08-19T07:22:42;15.30;99.90
25991;DHT22;13779;-33.886;151.198;2022-08-19T07:25:16;15.20;99.90
25991;DHT22;13779;-33.886;151.198;2022-08-19T07:27:59;15.20;99.90
25991;DHT22;13779;-33.886;151.198;2022-08-19T07:30:30;15.00;99.90
25991;DHT22;13779;-33.886;151.198;2022-08-19T07:33:00;15.00;99.90
25991;DHT22;13779;-33.886;151.198;2022-08-19T07:35:34;15.00;99.90
25991;DHT22;13779;-33.886;151.198;2022-08-19T07:38:07;15.00;99.90
25991;DHT22;13779;-33.886;151.198;2022-08-19T07:40:38;15.00;99.90
25991;DHT22;13779;-33.886;151.198;2022-08-19T07:43:11;15.00;99.90
25991;DHT22;13779;-33.886;151.198;2022-08-19T07:51:40;15.00;99.90
25991;DHT22;13779;-33.886;151.198;2022-08-19T07:54:14;15.00;99.90
25991;DHT22;13779;-33.886;151.198;2022-08-19T07:56:44;15.00;99.90
25991;DHT22;13779;-33.886;151.198;2022-08-19T07:59:16;14.90;99.90
25991;DHT22;13779;-33.886;151.198;2022-08-19T08:01:49;15.00;99.90
25991;DHT22;13779;-33.886;151.198;2022-08-19T08:04:21;15.00;99.90
25991;DHT22;13779;-33.886;151.198;2022-08-19T08:07:09;15.00;99.90
25991;DHT22;13779;-33.886;151.198;2022-08-19T08:09:59;14.90;99.90
25991;DHT22;13779;-33.886;151.198;2022-08-19T08:12:34;14.90;99.90
25991;DHT22;13779;-33.886;151.198;2022-08-19T08:15:09;14.90;99.90
25991;DHT22;13779;-33.886;151.198;2022-08-19T08:17:39;14.90;99.90
25991;DHT22;13779;-33.886;151.198;2022-08-19T08:20:17;14.90;99.90
25991;DHT22;13779;-33.886;151.198;2022-08-19T08:22:48;14.80;99.90
25991;DHT22;13779;-33.886;151.198;2022-08-19T08:25:36;14.70;99.90
25991;DHT22;13779;-33.886;151.198;2022-08-19T08:28:07;14.70;99.90
25991;DHT22;13779;-33.886;151.198;2022-08-19T08:30:44;14.60;99.90
25991;DHT22;13779;-33.886;151.198;2022-08-19T08:33:23;14.60;99.90
25991;DHT22;13779;-33.886;151.198;2022-08-19T08:35:55;14.60;99.90
25991;DHT22;13779;-33.886;151.198;2022-08-19T08:38:25;14.50;99.90
25991;DHT22;13779;-33.886;151.198;2022-08-19T08:41:06;14.50;99.90
25991;DHT22;13779;-33.886;151.198;2022-08-19T08:43:45;14.40;99.90
25991;DHT22;13779;-33.886;151.198;2022-08-19T08:52:00;14.30;99.90
25991;DHT22;13779;-33.886;151.198;2022-08-19T08:54:44;14.30;99.90
25991;DHT22;13779;-33.886;151.198;2022-08-19T09:00:22;14.30;99.90
25991;DHT22;13779;-33.886;151.198;2022-08-19T09:02:59;14.30;99.90
25991;DHT22;13779;-33.886;151.198;2022-08-19T09:17:20;14.10;99.90
25991;DHT22;13779;-33.886;151.198;2022-08-19T09:19:59;14.20;99.90
25991;DHT22;13779;-33.886;151.198;2022-08-19T09:22:40;14.20;99.90
25991;DHT22;13779;-33.886;151.198;2022-08-19T09:25:16;14.10;99.90
25991;DHT22;13779;-33.886;151.198;2022-08-19T09:27:52;14.10;99.90
25991;DHT22;13779;-33.886;151.198;2022-08-19T09:30:40;14.10;99.90
25991;DHT22;13779;-33.886;151.198;2022-08-19T09:33:11;14.10;99.90
25991;DHT22;13779;-33.886;151.198;2022-08-19T09:35:41;14.10;99.90
25991;DHT22;13779;-33.886;151.198;2022-08-19T09:38:16;14.00;99.90
25991;DHT22;13779;-33.886;151.198;2022-08-19T09:40:47;14.00;99.90
25991;DHT22;13779;-33.886;151.198;2022-08-19T09:43:17;14.00;99.90
25991;DHT22;13779;-33.886;151.198;2022-08-19T09:45:52;14.00;99.90
25991;DHT22;13779;-33.886;151.198;2022-08-19T09:48:23;13.90;99.90
25991;DHT22;13779;-33.886;151.198;2022-08-19T09:50:53;13.90;99.90
25991;DHT22;13779;-33.886;151.198;2022-08-19T09:53:23;14.00;99.90
25991;DHT22;13779;-33.886;151.198;2022-08-19T09:55:57;14.10;99.90
25991;DHT22;13779;-33.886;151.198;2022-08-19T09:58:27;14.10;99.90
25991;DHT22;13779;-33.886;151.198;2022-08-19T10:00:59;14.00;99.90
25991;DHT22;13779;-33.886;151.198;2022-08-19T10:03:30;14.00;99.90
25991;DHT22;13779;-33.886;151.198;2022-08-19T10:06:04;14.00;99.90
25991;DHT22;13779;-33.886;151.198;2022-08-19T10:08:42;14.10;99.90
25991;DHT22;13779;-33.886;151.198;2022-08-19T10:11:17;14.10;99.90
25991;DHT22;13779;-33.886;151.198;2022-08-19T10:13:55;14.10;99.90
25991;DHT22;13779;-33.886;151.198;2022-08-19T10:16:26;14.10;99.90
25991;DHT22;13779;-33.886;151.198;2022-08-19T10:18:57;14.00;99.90
25991;DHT22;13779;-33.886;151.198;2022-08-19T10:21:29;14.00;99.90
25991;DHT22;13779;-33.886;151.198;2022-08-19T10:24:03;14.00;99.90
25991;DHT22;13779;-33.886;151.198;2022-08-19T10:26:39;14.00;99.90
25991;DHT22;13779;-33.886;151.198;2022-08-19T10:29:14;14.00;99.90
25991;DHT22;13779;-33.886;151.198;2022-08-19T10:32:00;13.90;99.90
25991;DHT22;13779;-33.886;151.198;2022-08-19T10:34:31;13.90;99.90
25991;DHT22;13779;-33.886;151.198;2022-08-19T10:37:03;13.90;99.90
25991;DHT22;13779;-33.886;151.198;2022-08-19T10:39:37;13.90;99.90
25991;DHT22;13779;-33.886;151.198;2022-08-19T10:42:09;13.90;99.90
25991;DHT22;13779;-33.886;151.198;2022-08-19T10:44:43;13.80;99.90
25991;DHT22;13779;-33.886;151.198;2022-08-19T10:47:13;13.70;99.90
25991;DHT22;13779;-33.886;151.198;2022-08-19T10:49:44;13.70;99.90
25991;DHT22;13779;-33.886;151.198;2022-08-19T10:52:44;13.70;99.90
25991;DHT22;13779;-33.886;151.198;2022-08-19T10:55:19;13.80;99.90
25991;DHT22;13779;-33.886;151.198;2022-08-19T10:58:20;13.70;99.90
25991;DHT22;13779;-33.886;151.198;2022-08-19T11:00:58;13.80;99.90
25991;DHT22;13779;-33.886;151.198;2022-08-19T11:03:28;13.80;99.90
25991;DHT22;13779;-33.886;151.198;2022-08-19T11:06:05;13.90;99.90
25991;DHT22;13779;-33.886;151.198;2022-08-19T11:08:37;13.90;99.90
25991;DHT22;13779;-33.886;151.198;2022-08-19T11:11:08;13.80;99.90
25991;DHT22;13779;-33.886;151.198;2022-08-19T11:13:40;13.80;99.90
25991;DHT22;13779;-33.886;151.198;2022-08-19T11:16:13;13.60;99.90
25991;DHT22;13779;-33.886;151.198;2022-08-19T11:18:47;13.60;99.90
25991;DHT22;13779;-33.886;151.198;2022-08-19T11:21:23;13.60;99.90
25991;DHT22;13779;-33.886;151.198;2022-08-19T11:23:56;13.50;99.90
25991;DHT22;13779;-33.886;151.198;2022-08-19T11:26:30;13.50;99.90
25991;DHT22;13779;-33.886;151.198;2022-08-19T11:29:01;13.40;99.90
25991;DHT22;13779;-33.886;151.198;2022-08-19T11:31:33;13.40;99.90
25991;DHT22;13779;-33.886;151.198;2022-08-19T11:34:07;13.40;99.90
25991;DHT22;13779;-33.886;151.198;2022-08-19T11:36:39;13.30;99.90
25991;DHT22;13779;-33.886;151.198;2022-08-19T11:39:12;13.40;99.90
25991;DHT22;13779;-33.886;151.198;2022-08-19T11:41:43;13.30;99.90
25991;DHT22;13779;-33.886;151.198;2022-08-19T11:44:13;13.30;99.90
25991;DHT22;13779;-33.886;151.198;2022-08-19T11:46:44;13.40;99.90
25991;DHT22;13779;-33.886;151.198;2022-08-19T11:49:19;13.30;99.90
25991;DHT22;13779;-33.886;151.198;2022-08-19T11:51:50;13.20;99.90
25991;DHT22;13779;-33.886;151.198;2022-08-19T11:54:20;13.20;99.90
25991;DHT22;13779;-33.886;151.198;2022-08-19T11:56:50;13.20;99.90
25991;DHT22;13779;-33.886;151.198;2022-08-19T11:59:21;13.20;99.90
25991;DHT22;13779;-33.886;151.198;2022-08-19T12:01:51;13.20;99.90
25991;DHT22;13779;-33.886;151.198;2022-08-19T12:04:21;13.20;99.90
25991;DHT22;13779;-33.886;151.198;2022-08-19T12:06:51;13.30;99.90
25991;DHT22;13779;-33.886;151.198;2022-08-19T12:09:22;13.30;99.90
25991;DHT22;13779;-33.886;151.198;2022-08-19T12:11:52;13.30;99.90
25991;DHT22;13779;-33.886;151.198;2022-08-19T12:14:22;13.30;99.90
25991;DHT22;13779;-33.886;151.198;2022-08-19T12:16:53;13.40;99.90
25991;DHT22;13779;-33.886;151.198;2022-08-19T12:19:23;13.40;99.90
25991;DHT22;13779;-33.886;151.198;2022-08-19T12:21:59;13.30;99.90
25991;DHT22;13779;-33.886;151.198;2022-08-19T12:24:34;13.30;99.90
25991;DHT22;13779;-33.886;151.198;2022-08-19T12:27:04;13.30;99.90
25991;DHT22;13779;-33.886;151.198;2022-08-19T12:29:35;13.30;99.90
25991;DHT22;13779;-33.886;151.198;2022-08-19T12:32:06;13.30;99.90
25991;DHT22;13779;-33.886;151.198;2022-08-19T12:34:38;13.30;99.90
25991;DHT22;13779;-33.886;151.198;2022-08-19T12:37:09;13.30;99.90
25991;DHT22;13779;-33.886;151.198;2022-08-19T12:39:41;13.30;99.90
25991;DHT22;13779;-33.886;151.198;2022-08-19T12:42:14;13.20;99.90
25991;DHT22;13779;-33.886;151.198;2022-08-19T12:44:44;13.30;99.90
25991;DHT22;13779;-33.886;151.198;2022-08-19T12:47:15;13.20;99.90
25991;DHT22;13779;-33.886;151.198;2022-08-19T12:49:46;13.20;99.90
25991;DHT22;13779;-33.886;151.198;2022-08-19T12:52:22;13.20;99.90
25991;DHT22;13779;-33.886;151.198;2022-08-19T12:54:54;13.20;99.90
25991;DHT22;13779;-33.886;151.198;2022-08-19T12:57:27;13.10;99.90
25991;DHT22;13779;-33.886;151.198;2022-08-19T13:02:33;13.20;99.90
25991;DHT22;13779;-33.886;151.198;2022-08-19T13:05:06;13.20;99.90
25991;DHT22;13779;-33.886;151.198;2022-08-19T13:07:39;13.20;99.90
25991;DHT22;13779;-33.886;151.198;2022-08-19T13:10:13;13.20;99.90
25991;DHT22;13779;-33.886;151.198;2022-08-19T13:12:50;13.20;99.90
25991;DHT22;13779;-33.886;151.198;2022-08-19T13:15:22;13.10;99.90
25991;DHT22;13779;-33.886;151.198;2022-08-19T13:17:54;13.00;99.90
25991;DHT22;13779;-33.886;151.198;2022-08-19T13:20:25;13.10;99.90
25991;DHT22;13779;-33.886;151.198;2022-08-19T13:22:56;13.10;99.90
25991;DHT22;13779;-33.886;151.198;2022-08-19T13:25:26;13.10;99.90
25991;DHT22;13779;-33.886;151.198;2022-08-19T13:27:57;13.00;99.90
25991;DHT22;13779;-33.886;151.198;2022-08-19T13:30:28;13.00;99.90
25991;DHT22;13779;-33.886;151.198;2022-08-19T13:33:17;13.10;99.90
25991;DHT22;13779;-33.886;151.198;2022-08-19T13:35:54;13.10;99.90
25991;DHT22;13779;-33.886;151.198;2022-08-19T13:38:27;13.10;99.90
25991;DHT22;13779;-33.886;151.198;2022-08-19T13:41:05;13.00;99.90
25991;DHT22;13779;-33.886;151.198;2022-08-19T13:43:39;13.00;99.90
25991;DHT22;13779;-33.886;151.198;2022-08-19T13:46:11;13.00;99.90
25991;DHT22;13779;-33.886;151.198;2022-08-19T13:48:44;13.00;99.90
25991;DHT22;13779;-33.886;151.198;2022-08-19T13:51:18;13.00;99.90
25991;DHT22;13779;-33.886;151.198;2022-08-19T13:53:48;13.00;99.90
25991;DHT22;13779;-33.886;151.198;2022-08-19T13:56:20;12.90;99.90
25991;DHT22;13779;-33.886;151.198;2022-08-19T13:58:53;12.80;99.90
25991;DHT22;13779;-33.886;151.198;2022-08-19T14:01:24;12.80;99.90
25991;DHT22;13779;-33.886;151.198;2022-08-19T14:03:56;12.80;99.90
25991;DHT22;13779;-33.886;151.198;2022-08-19T14:06:27;12.80;99.90
25991;DHT22;13779;-33.886;151.198;2022-08-19T14:08:57;12.80;99.90
25991;DHT22;13779;-33.886;151.198;2022-08-19T14:11:32;13.00;99.90
25991;DHT22;13779;-33.886;151.198;2022-08-19T14:14:02;13.00;99.90
25991;DHT22;13779;-33.886;151.198;2022-08-19T14:16:33;12.90;99.90
25991;DHT22;13779;-33.886;151.198;2022-08-19T14:19:04;12.90;99.90
25991;DHT22;13779;-33.886;151.198;2022-08-19T14:21:34;12.80;99.90
25991;DHT22;13779;-33.886;151.198;2022-08-19T14:24:11;12.80;99.90
25991;DHT22;13779;-33.886;151.198;2022-08-19T14:26:42;12.80;99.90
25991;DHT22;13779;-33.886;151.198;2022-08-19T14:29:15;12.80;99.90
25991;DHT22;13779;-33.886;151.198;2022-08-19T14:31:46;12.70;99.90
25991;DHT22;13779;-33.886;151.198;2022-08-19T14:34:17;12.80;99.90
25991;DHT22;13779;-33.886;151.198;2022-08-19T14:36:47;12.70;99.90
25991;DHT22;13779;-33.886;151.198;2022-08-19T14:39:18;12.70;99.90
25991;DHT22;13779;-33.886;151.198;2022-08-19T14:41:49;12.70;99.90
25991;DHT22;13779;-33.886;151.198;2022-08-19T14:44:20;12.80;99.90
25991;DHT22;13779;-33.886;151.198;2022-08-19T14:46:52;12.80;99.90
25991;DHT22;13779;-33.886;151.198;2022-08-19T14:49:23;12.70;99.90
25991;DHT22;13779;-33.886;151.198;2022-08-19T14:52:02;12.70;99.90
25991;DHT22;13779;-33.886;151.198;2022-08-19T14:54:33;12.70;99.90
25991;DHT22;13779;-33.886;151.198;2022-08-19T14:57:04;12.80;99.90
25991;DHT22;13779;-33.886;151.198;2022-08-19T14:59:35;12.80;99.90
25991;DHT22;13779;-33.886;151.198;2022-08-19T15:02:06;12.80;99.90
25991;DHT22;13779;-33.886;151.198;2022-08-19T15:04:47;12.70;99.90
25991;DHT22;13779;-33.886;151.198;2022-08-19T15:07:25;12.70;99.90
25991;DHT22;13779;-33.886;151.198;2022-08-19T15:09:57;12.60;99.90
25991;DHT22;13779;-33.886;151.198;2022-08-19T15:12:32;12.60;99.90
25991;DHT22;13779;-33.886;151.198;2022-08-19T15:15:03;12.60;99.90
25991;DHT22;13779;-33.886;151.198;2022-08-19T15:17:34;12.60;99.90
25991;DHT22;13779;-33.886;151.198;2022-08-19T15:20:17;12.50;99.90
25991;DHT22;13779;-33.886;151.198;2022-08-19T15:22:48;12.50;99.90
25991;DHT22;13779;-33.886;151.198;2022-08-19T15:25:19;12.60;99.90
25991;DHT22;13779;-33.886;151.198;2022-08-19T15:27:50;12.60;99.90
25991;DHT22;13779;-33.886;151.198;2022-08-19T15:30:24;12.50;99.90
25991;DHT22;13779;-33.886;151.198;2022-08-19T15:32:57;12.40;99.90
25991;DHT22;13779;-33.886;151.198;2022-08-19T15:35:28;12.40;99.90
25991;DHT22;13779;-33.886;151.198;2022-08-19T15:37:59;12.40;99.90
25991;DHT22;13779;-33.886;151.198;2022-08-19T15:40:30;12.40;99.90
25991;DHT22;13779;-33.886;151.198;2022-08-19T15:43:00;12.40;99.90
25991;DHT22;13779;-33.886;151.198;2022-08-19T15:45:41;12.40;99.90
25991;DHT22;13779;-33.886;151.198;2022-08-19T15:48:16;12.50;99.90
25991;DHT22;13779;-33.886;151.198;2022-08-19T15:50:47;12.40;99.90
25991;DHT22;13779;-33.886;151.198;2022-08-19T15:53:17;12.40;99.90
25991;DHT22;13779;-33.886;151.198;2022-08-19T15:55:47;12.40;99.90
25991;DHT22;13779;-33.886;151.198;2022-08-19T15:58:19;12.40;99.90
25991;DHT22;13779;-33.886;151.198;2022-08-19T16:01:07;12.30;99.90
25991;DHT22;13779;-33.886;151.198;2022-08-19T16:03:57;12.40;99.90
25991;DHT22;13779;-33.886;151.198;2022-08-19T16:06:48;12.30;99.90
25991;DHT22;13779;-33.886;151.198;2022-08-19T16:09:20;12.30;99.90
25991;DHT22;13779;-33.886;151.198;2022-08-19T16:11:58;12.30;99.90
25991;DHT22;13779;-33.886;151.198;2022-08-19T16:14:34;12.30;99.90
25991;DHT22;13779;-33.886;151.198;2022-08-19T16:17:06;12.30;99.90
25991;DHT22;13779;-33.886;151.198;2022-08-19T16:19:40;12.30;99.90
25991;DHT22;13779;-33.886;151.198;2022-08-19T16:22:10;12.20;99.90
25991;DHT22;13779;-33.886;151.198;2022-08-19T16:24:41;12.20;99.90
25991;DHT22;13779;-33.886;151.198;2022-08-19T16:27:11;12.10;99.90
25991;DHT22;13779;-33.886;151.198;2022-08-19T16:29:41;12.10;99.90